createdAt,value
2018-08-07T00:00:56.265Z,3.90
2018-08-07T00:03:26.307Z,3.90
2018-08-07T00:05:56.057Z,2.97
2018-08-07T00:08:25.982Z,3.70
2018-08-07T00:10:56.034Z,2.80
2018-08-07T00:13:26.225Z,3.87
2018-08-07T00:15:56.124Z,3.27
2018-08-07T00:18:26.022Z,2.90
2018-08-07T00:20:55.783Z,3.20
2018-08-07T00:23:25.593Z,3.50
2018-08-07T00:25:55.363Z,3.40
2018-08-07T00:28:25.240Z,3.30
2018-08-07T00:30:54.573Z,3.47
2018-08-07T00:33:24.377Z,3.17
2018-08-07T00:35:54.233Z,3.60
2018-08-07T00:38:24.065Z,3.23
2018-08-07T00:40:54.098Z,3.63
2018-08-07T00:43:24.030Z,3.10
2018-08-07T00:45:53.886Z,3.80
2018-08-07T00:48:23.740Z,3.60
2018-08-07T00:50:53.642Z,3.63
2018-08-07T00:53:23.664Z,3.40
2018-08-07T00:55:53.553Z,2.77
2018-08-07T00:58:23.404Z,2.90
2018-08-07T01:00:53.333Z,2.80
2018-08-07T01:03:23.187Z,3.07
2018-08-07T01:05:53.070Z,2.97
2018-08-07T01:08:22.904Z,3.73
2018-08-07T01:10:52.260Z,3.60
2018-08-07T01:13:22.184Z,3.20
2018-08-07T01:15:52.043Z,3.33
2018-08-07T01:18:21.878Z,3.10
2018-08-07T01:20:51.565Z,3.30
2018-08-07T01:23:21.348Z,3.47
2018-08-07T01:25:51.242Z,3.87
2018-08-07T01:28:21.169Z,3.33
2018-08-07T01:30:50.882Z,3.23
2018-08-07T01:33:20.584Z,3.70
2018-08-07T01:35:50.258Z,3.57
2018-08-07T01:38:19.977Z,4.23
2018-08-07T01:40:49.731Z,4.03
2018-08-07T01:43:19.440Z,4.20
2018-08-07T01:45:49.121Z,4.67
2018-08-07T01:48:18.816Z,4.60
2018-08-07T01:50:48.529Z,4.10
2018-08-07T01:53:18.475Z,4.47
2018-08-07T01:55:48.194Z,4.70
2018-08-07T01:58:17.959Z,4.70
2018-08-07T02:00:47.653Z,4.50
2018-08-07T02:03:17.341Z,4.33
2018-08-07T02:05:47.055Z,4.97
2018-08-07T02:08:16.905Z,4.50
2018-08-07T02:10:46.966Z,4.40
2018-08-07T02:13:16.268Z,4.07
2018-08-07T02:15:45.652Z,4.60
2018-08-07T02:18:15.359Z,4.53
2018-08-07T02:20:45.049Z,4.67
2018-08-07T02:23:14.760Z,4.30
2018-08-07T02:25:44.425Z,4.33
2018-08-07T02:28:14.172Z,4.90
2018-08-07T02:30:43.913Z,4.60
2018-08-07T02:33:13.574Z,5.27
2018-08-07T02:35:43.325Z,5.03
2018-08-07T02:38:13.050Z,4.80
2018-08-07T02:40:42.710Z,4.90
2018-08-07T02:43:12.642Z,4.90
2018-08-07T02:45:42.369Z,5.70
2018-08-07T02:48:12.121Z,5.60
2018-08-07T02:50:41.946Z,5.43
2018-08-07T02:53:11.641Z,5.70
2018-08-07T02:55:41.292Z,4.80
2018-08-07T02:58:10.934Z,4.67
2018-08-07T03:00:44.535Z,5.23
2018-08-07T03:03:14.255Z,5.30
2018-08-07T03:05:43.880Z,4.40
2018-08-07T03:08:13.586Z,5.03
2018-08-07T03:10:43.246Z,4.97
2018-08-07T03:13:12.946Z,5.20
2018-08-07T03:15:42.627Z,5.43
2018-08-07T03:18:12.302Z,5.77
2018-08-07T03:20:42.051Z,4.73
2018-08-07T03:23:11.866Z,4.33
2018-08-07T03:25:41.753Z,5.20
2018-08-07T03:28:11.218Z,5.73
2018-08-07T03:30:40.939Z,5.67
2018-08-07T03:33:10.840Z,5.20
2018-08-07T03:35:40.456Z,5.43
2018-08-07T03:38:10.257Z,5.07
2018-08-07T03:40:39.926Z,6.20
2018-08-07T03:43:09.284Z,5.40
2018-08-07T03:45:38.941Z,5.47
2018-08-07T03:48:08.618Z,4.90
2018-08-07T03:50:38.339Z,5.30
2018-08-07T03:53:08.120Z,5.20
2018-08-07T03:55:37.799Z,4.93
2018-08-07T03:58:07.489Z,5.23
2018-08-07T04:00:42.396Z,5.97
2018-08-07T04:03:12.159Z,5.33
2018-08-07T04:05:41.977Z,5.50
2018-08-07T04:08:11.713Z,5.83
2018-08-07T04:10:41.532Z,5.67
2018-08-07T04:13:11.274Z,4.90
2018-08-07T04:15:41.085Z,5.97
2018-08-07T04:18:10.856Z,5.53
2018-08-07T04:20:40.654Z,5.00
2018-08-07T04:23:10.682Z,4.50
2018-08-07T04:25:40.373Z,5.00
2018-08-07T04:28:10.228Z,5.10
2018-08-07T04:30:39.934Z,5.07
2018-08-07T04:33:09.758Z,5.47
2018-08-07T04:35:39.537Z,4.90
2018-08-07T04:38:09.417Z,5.20
2018-08-07T04:40:39.099Z,5.87
2018-08-07T04:43:08.853Z,5.20
2018-08-07T04:45:38.565Z,5.77
2018-08-07T04:48:08.569Z,4.80
2018-08-07T04:50:38.390Z,5.57
2018-08-07T04:53:08.346Z,5.93
2018-08-07T04:55:38.317Z,5.07
2018-08-07T04:58:08.176Z,5.13
2018-08-07T05:00:37.925Z,5.13
2018-08-07T05:03:07.722Z,5.03
2018-08-07T05:05:37.493Z,5.30
2018-08-07T05:08:07.391Z,5.50
2018-08-07T05:10:37.558Z,6.27
2018-08-07T05:13:07.183Z,5.60
2018-08-07T05:15:36.947Z,5.20
2018-08-07T05:18:06.653Z,4.97
2018-08-07T05:20:36.598Z,5.27
2018-08-07T05:23:06.339Z,6.60
2018-08-07T05:25:36.061Z,5.40
2018-08-07T05:28:05.830Z,5.40
2018-08-07T05:30:35.792Z,5.67
2018-08-07T05:33:05.789Z,5.20
2018-08-07T05:35:35.573Z,5.47
2018-08-07T05:38:05.446Z,6.07
2018-08-07T05:40:35.338Z,6.23
2018-08-07T05:43:05.280Z,5.90
2018-08-07T05:45:35.032Z,5.43
2018-08-07T05:48:04.995Z,5.60
2018-08-07T05:50:34.871Z,5.37
2018-08-07T05:53:04.610Z,5.57
2018-08-07T05:55:34.491Z,5.47
2018-08-07T05:58:04.521Z,5.10
2018-08-07T06:00:34.071Z,5.97
2018-08-07T06:03:03.850Z,6.23
2018-08-07T06:05:33.639Z,5.70
2018-08-07T06:08:03.368Z,5.60
2018-08-07T06:10:33.053Z,5.70
2018-08-07T06:13:02.952Z,5.20
2018-08-07T06:15:32.766Z,5.10
2018-08-07T06:18:02.570Z,5.83
2018-08-07T06:20:32.362Z,6.03
2018-08-07T06:23:02.062Z,5.90
2018-08-07T06:25:32.244Z,6.20
2018-08-07T06:28:02.032Z,5.83
2018-08-07T06:30:31.697Z,5.50
2018-08-07T06:33:01.519Z,5.90
2018-08-07T06:35:31.368Z,5.30
2018-08-07T06:38:01.117Z,5.57
2018-08-07T06:40:30.968Z,5.80
2018-08-07T06:43:00.694Z,5.50
2018-08-07T06:45:30.377Z,5.67
2018-08-07T06:48:00.202Z,4.50
2018-08-07T06:50:29.952Z,5.10
2018-08-07T06:52:59.642Z,5.10
2018-08-07T06:55:29.717Z,4.47
2018-08-07T06:57:59.452Z,4.80
2018-08-07T07:00:29.210Z,4.60
2018-08-07T07:02:58.930Z,4.83
2018-08-07T07:05:28.694Z,4.17
2018-08-07T07:07:58.471Z,4.93
2018-08-07T07:10:28.390Z,4.67
2018-08-07T07:12:58.198Z,4.77
2018-08-07T07:15:28.001Z,4.23
2018-08-07T07:17:57.692Z,4.93
2018-08-07T07:20:27.077Z,4.40
2018-08-07T07:22:56.758Z,4.43
2018-08-07T07:25:26.442Z,4.27
2018-08-07T07:27:56.166Z,4.77
2018-08-07T07:30:26.114Z,4.50
2018-08-07T07:32:56.544Z,4.43
2018-08-07T07:35:26.272Z,4.70
2018-08-07T07:37:56.062Z,4.50
2018-08-07T07:40:25.846Z,4.00
2018-08-07T07:42:55.567Z,4.37
2018-08-07T07:45:25.385Z,4.20
2018-08-07T07:47:55.625Z,5.27
2018-08-07T07:50:25.406Z,3.53
2018-08-07T07:52:55.253Z,4.30
2018-08-07T07:55:25.084Z,4.50
2018-08-07T07:57:54.937Z,4.10
2018-08-07T08:00:27.211Z,4.23
2018-08-07T08:02:56.957Z,4.33
2018-08-07T08:05:27.505Z,4.30
2018-08-07T08:07:57.330Z,3.60
2018-08-07T08:10:27.151Z,4.23
2018-08-07T08:12:56.976Z,3.90
2018-08-07T08:15:26.914Z,4.00
2018-08-07T08:17:56.569Z,4.20
2018-08-07T08:20:26.872Z,4.23
2018-08-07T08:22:56.531Z,4.50
2018-08-07T08:25:26.235Z,4.00
2018-08-07T08:27:56.042Z,4.00
2018-08-07T08:30:25.764Z,4.53
2018-08-07T08:32:55.504Z,4.47
2018-08-07T08:35:25.387Z,4.30
2018-08-07T08:37:55.010Z,3.63
2018-08-07T08:40:25.907Z,4.37
2018-08-07T08:42:56.178Z,3.83
2018-08-07T08:45:27.002Z,4.03
2018-08-07T08:47:58.948Z,5.20
2018-08-07T08:50:29.326Z,4.00
2018-08-07T08:52:59.026Z,4.47
2018-08-07T08:55:28.752Z,3.87
2018-08-07T08:57:58.555Z,4.30
2018-08-07T09:00:30.216Z,3.77
2018-08-07T09:03:02.319Z,4.23
2018-08-07T09:05:32.541Z,4.30
2018-08-07T09:08:02.302Z,4.23
2018-08-07T09:10:33.483Z,4.17
2018-08-07T09:13:03.676Z,4.37
2018-08-07T09:15:33.360Z,3.80
2018-08-07T09:18:03.156Z,4.10
2018-08-07T09:20:33.187Z,4.20
2018-08-07T09:23:03.052Z,4.00
2018-08-07T09:25:33.059Z,4.27
2018-08-07T09:28:02.743Z,4.17
2018-08-07T09:30:32.626Z,3.67
2018-08-07T09:33:02.446Z,4.00
2018-08-07T09:35:32.205Z,4.00
2018-08-07T09:38:01.986Z,3.83
2018-08-07T09:40:31.646Z,4.10
2018-08-07T09:43:01.648Z,3.97
2018-08-07T09:45:33.615Z,3.77
2018-08-07T09:48:07.357Z,4.70
2018-08-07T09:50:37.204Z,3.60
2018-08-07T09:53:07.109Z,3.93
2018-08-07T09:55:36.992Z,3.50
2018-08-07T09:58:07.258Z,3.20
2018-08-07T10:00:42.206Z,2.97
2018-08-07T10:03:16.478Z,3.87
2018-08-07T10:05:46.485Z,3.42
2018-08-07T10:08:16.291Z,3.58
2018-08-07T10:10:46.304Z,3.98
2018-08-07T10:13:16.137Z,3.72
2018-08-07T10:15:45.808Z,3.77
2018-08-07T10:18:16.516Z,3.47
2018-08-07T10:21:14.146Z,3.62
2018-08-07T10:23:43.917Z,3.15
2018-08-07T10:26:13.667Z,3.83
2018-08-07T10:28:43.579Z,4.10
2018-08-07T10:31:13.479Z,3.52
2018-08-07T10:33:43.199Z,3.40
2018-08-07T10:36:13.147Z,3.30
2018-08-07T10:38:42.856Z,3.77
2018-08-07T10:41:12.717Z,4.58
2018-08-07T10:43:42.530Z,4.05
2018-08-07T10:46:12.243Z,3.30
2018-08-07T10:48:41.931Z,3.85
2018-08-07T10:51:12.598Z,4.00
2018-08-07T10:53:42.797Z,3.67
2018-08-07T10:56:13.088Z,3.97
2018-08-07T10:58:42.889Z,3.93
2018-08-07T11:01:12.658Z,3.20
2018-08-07T11:03:42.436Z,3.58
2018-08-07T11:06:12.141Z,3.90
2018-08-07T11:08:41.860Z,3.85
2018-08-07T11:11:11.644Z,3.45
2018-08-07T11:13:41.411Z,3.33
2018-08-07T11:16:11.068Z,3.67
2018-08-07T11:18:40.818Z,3.50
2018-08-07T11:21:10.534Z,3.80
2018-08-07T11:23:40.257Z,3.57
2018-08-07T11:26:09.974Z,3.83
2018-08-07T11:28:39.748Z,4.03
2018-08-07T11:31:09.481Z,3.50
2018-08-07T11:33:39.204Z,3.70
2018-08-07T11:36:08.903Z,3.70
2018-08-07T11:38:38.657Z,3.13
2018-08-07T11:41:08.636Z,3.47
2018-08-07T11:43:38.385Z,2.90
2018-08-07T11:46:08.556Z,3.80
2018-08-07T11:48:38.309Z,3.60
2018-08-07T11:51:08.706Z,3.33
2018-08-07T11:53:38.629Z,3.27
2018-08-07T11:56:08.370Z,3.53
2018-08-07T11:58:38.057Z,3.40
2018-08-07T12:01:14.239Z,3.60
2018-08-07T12:03:44.010Z,3.23
2018-08-07T12:06:13.840Z,2.90
2018-08-07T12:08:43.654Z,3.63
2018-08-07T12:11:13.456Z,3.50
2018-08-07T12:13:43.222Z,4.20
2018-08-07T12:16:13.252Z,3.70
2018-08-07T12:18:43.225Z,3.50
2018-08-07T12:21:12.952Z,3.60
2018-08-07T12:23:42.808Z,3.77
2018-08-07T12:26:12.699Z,3.57
2018-08-07T12:28:42.390Z,3.37
2018-08-07T12:31:12.171Z,3.57
2018-08-07T12:33:41.856Z,3.30
2018-08-07T12:36:11.544Z,3.33
2018-08-07T12:38:41.619Z,3.50
2018-08-07T12:41:11.422Z,3.60
2018-08-07T12:43:41.216Z,3.50
2018-08-07T12:46:10.985Z,3.70
2018-08-07T12:48:40.716Z,3.70
2018-08-07T12:51:10.841Z,3.30
2018-08-07T12:53:40.786Z,3.40
2018-08-07T12:56:10.595Z,3.60
2018-08-07T12:58:40.405Z,4.50
2018-08-07T13:01:10.200Z,3.60
2018-08-07T13:03:39.921Z,3.30
2018-08-07T13:06:09.713Z,3.80
2018-08-07T13:08:39.692Z,3.73
2018-08-07T13:11:09.973Z,3.93
2018-08-07T13:13:39.693Z,3.90
2018-08-07T13:16:09.448Z,3.00
2018-08-07T13:18:39.305Z,3.47
2018-08-07T13:21:09.220Z,3.90
2018-08-07T13:23:39.024Z,4.10
2018-08-07T13:26:09.128Z,3.30
2018-08-07T13:28:38.897Z,3.80
2018-08-07T13:31:09.127Z,3.77
2018-08-07T13:33:38.905Z,3.60
2018-08-07T13:36:08.778Z,3.93
2018-08-07T13:38:38.664Z,3.70
2018-08-07T13:41:08.494Z,4.17
2018-08-07T13:43:38.382Z,3.73
2018-08-07T13:46:08.197Z,4.23
2018-08-07T13:48:38.056Z,4.27
2018-08-07T13:51:08.081Z,3.60
2018-08-07T13:53:37.776Z,3.97
2018-08-07T13:56:07.973Z,3.73
2018-08-07T13:58:37.853Z,3.77
2018-08-07T14:01:07.978Z,3.80
2018-08-07T14:03:37.870Z,4.17
2018-08-07T14:06:07.593Z,3.30
2018-08-07T14:08:37.367Z,3.80
2018-08-07T14:11:07.392Z,3.80
2018-08-07T14:13:37.292Z,3.33
2018-08-07T14:16:07.116Z,3.60
2018-08-07T14:18:36.991Z,3.93
2018-08-07T14:21:06.727Z,3.30
2018-08-07T14:23:37.365Z,3.13
2018-08-07T14:26:07.505Z,2.73
2018-08-07T14:28:37.293Z,3.10
2018-08-07T14:31:07.574Z,2.70
2018-08-07T14:33:37.577Z,3.27
2018-08-07T14:36:07.697Z,4.00
2018-08-07T14:38:37.462Z,4.20
2018-08-07T14:41:07.339Z,5.03
2018-08-07T14:43:37.116Z,4.20
2018-08-07T14:46:07.137Z,5.70
2018-08-07T14:48:36.818Z,3.27
2018-08-07T14:51:06.692Z,3.90
2018-08-07T14:53:36.437Z,4.70
2018-08-07T14:56:06.737Z,4.30
2018-08-07T14:58:36.454Z,4.90
2018-08-07T15:01:07.155Z,3.07
2018-08-07T15:03:36.882Z,3.33
2018-08-07T15:06:06.981Z,3.17
2018-08-07T15:08:36.632Z,3.90
2018-08-07T15:11:06.415Z,3.00
2018-08-07T15:13:37.267Z,3.07
2018-08-07T15:16:07.106Z,3.20
2018-08-07T15:18:36.788Z,3.67
2018-08-07T15:21:06.680Z,3.40
2018-08-07T15:23:36.864Z,3.00
2018-08-07T15:26:06.716Z,3.10
2018-08-07T15:28:36.460Z,3.07
2018-08-07T15:31:06.250Z,3.33
2018-08-07T15:33:35.976Z,3.47
2018-08-07T15:36:05.765Z,2.97
2018-08-07T15:38:35.499Z,3.50
2018-08-07T15:41:05.246Z,3.40
2018-08-07T15:43:34.960Z,3.27
2018-08-07T15:46:04.805Z,3.53
2018-08-07T15:48:34.646Z,3.60
2018-08-07T15:51:04.394Z,3.93
2018-08-07T15:53:34.156Z,3.70
2018-08-07T15:56:03.937Z,4.70
2018-08-07T15:58:33.707Z,4.10
2018-08-07T16:01:03.423Z,3.70
2018-08-07T16:03:33.458Z,4.23
2018-08-07T16:06:03.401Z,4.70
2018-08-07T16:08:33.112Z,3.97
2018-08-07T16:11:02.779Z,3.87
2018-08-07T16:13:32.812Z,4.27
2018-08-07T16:16:02.512Z,4.10
2018-08-07T16:18:32.334Z,4.53
2018-08-07T16:21:02.049Z,3.73
2018-08-07T16:23:31.762Z,4.43
2018-08-07T16:26:01.455Z,4.50
2018-08-07T16:28:31.303Z,3.80
2018-08-07T16:31:01.113Z,4.03
2018-08-07T16:33:30.889Z,4.00
2018-08-07T16:36:00.594Z,4.23
2018-08-07T16:38:30.341Z,4.00
2018-08-07T16:41:00.096Z,3.90
2018-08-07T16:43:29.861Z,4.50
2018-08-07T16:45:59.662Z,4.40
2018-08-07T16:48:29.395Z,3.70
2018-08-07T16:50:59.078Z,4.60
2018-08-07T16:53:28.785Z,4.47
2018-08-07T16:55:58.585Z,3.97
2018-08-07T16:58:28.372Z,4.33
2018-08-07T17:00:58.092Z,4.50
2018-08-07T17:03:27.986Z,4.53
2018-08-07T17:05:57.790Z,5.17
2018-08-07T17:08:27.477Z,4.60
2018-08-07T17:10:57.237Z,4.57
2018-08-07T17:13:27.004Z,4.30
2018-08-07T17:15:56.866Z,4.13
2018-08-07T17:18:26.577Z,4.40
2018-08-07T17:20:56.515Z,4.00
2018-08-07T17:23:26.191Z,4.40
2018-08-07T17:25:56.033Z,4.13
2018-08-07T17:28:25.742Z,11.13
2018-08-07T17:30:55.452Z,4.43
2018-08-07T17:33:25.336Z,5.00
2018-08-07T17:35:55.422Z,4.13
2018-08-07T17:38:25.261Z,4.67
2018-08-07T17:40:55.125Z,4.60
2018-08-07T17:43:25.044Z,4.47
2018-08-07T17:45:54.600Z,4.37
2018-08-07T17:48:24.530Z,5.83
2018-08-07T17:50:54.398Z,4.50
2018-08-07T17:53:24.195Z,4.37
2018-08-07T17:55:53.942Z,4.97
2018-08-07T17:58:23.665Z,4.53
2018-08-07T18:00:53.583Z,5.30
2018-08-07T18:03:23.388Z,6.33
2018-08-07T18:05:53.165Z,5.67
2018-08-07T18:08:23.023Z,4.90
2018-08-07T18:10:52.833Z,5.40
2018-08-07T18:13:22.625Z,5.10
2018-08-07T18:15:52.529Z,5.17
2018-08-07T18:18:22.379Z,4.10
2018-08-07T18:20:52.126Z,4.50
2018-08-07T18:23:21.958Z,5.73
2018-08-07T18:25:51.734Z,5.00
2018-08-07T18:28:21.478Z,4.53
2018-08-07T18:30:51.571Z,5.07
2018-08-07T18:33:21.384Z,6.50
2018-08-07T18:35:51.121Z,8.63
2018-08-07T18:38:21.084Z,5.17
2018-08-07T18:40:50.889Z,5.77
2018-08-07T18:43:20.644Z,6.13
2018-08-07T18:45:50.381Z,4.93
2018-08-07T18:48:20.369Z,5.50
2018-08-07T18:50:50.217Z,6.27
2018-08-07T18:53:20.149Z,7.13
2018-08-07T18:55:50.171Z,6.90
2018-08-07T18:58:20.243Z,7.90
2018-08-07T19:00:50.552Z,6.60
2018-08-07T19:03:20.737Z,5.73
2018-08-07T19:05:50.513Z,6.00
2018-08-07T19:08:20.343Z,5.50
2018-08-07T19:10:50.359Z,5.10
2018-08-07T19:13:20.113Z,6.40
2018-08-07T19:15:49.901Z,5.67
2018-08-07T19:18:19.897Z,7.03
2018-08-07T19:20:50.646Z,6.20
2018-08-07T19:23:20.625Z,5.97
2018-08-07T19:25:50.933Z,5.20
2018-08-07T19:28:20.938Z,5.40
2018-08-07T19:30:50.996Z,5.10
2018-08-07T19:33:20.702Z,5.50
2018-08-07T19:35:50.419Z,5.57
2018-08-07T19:38:20.281Z,4.70
2018-08-07T19:40:50.093Z,6.40
2018-08-07T19:43:19.896Z,8.40
2018-08-07T19:45:49.757Z,10.27
2018-08-07T19:48:19.562Z,11.17
2018-08-07T19:50:49.316Z,9.90
2018-08-07T19:53:19.133Z,10.00
2018-08-07T19:55:49.111Z,10.00
2018-08-07T19:58:18.807Z,10.20
2018-08-07T20:00:48.641Z,8.20
2018-08-07T20:03:18.712Z,7.50
2018-08-07T20:05:48.420Z,6.17
2018-08-07T20:08:18.244Z,7.27
2018-08-07T20:10:48.293Z,7.20
2018-08-07T20:13:18.250Z,7.00
2018-08-07T20:15:48.107Z,8.40
2018-08-07T20:18:17.909Z,8.10
2018-08-07T20:20:47.831Z,11.37
2018-08-07T20:23:17.541Z,9.73
2018-08-07T20:25:47.336Z,7.53
2018-08-07T20:28:17.299Z,7.00
2018-08-07T20:30:47.303Z,7.77
2018-08-07T20:33:17.061Z,7.63
2018-08-07T20:35:46.831Z,6.47
2018-08-07T20:38:16.531Z,6.43
2018-08-07T20:40:46.309Z,6.87
2018-08-07T20:43:16.107Z,6.47
2018-08-07T20:45:45.873Z,6.43
2018-08-07T20:48:15.739Z,5.70
2018-08-07T20:50:45.561Z,5.87
2018-08-07T20:53:15.414Z,6.27
2018-08-07T20:55:45.254Z,6.40
2018-08-07T20:58:15.169Z,6.30
2018-08-07T21:00:44.936Z,7.40
2018-08-07T21:03:14.902Z,6.33
2018-08-07T21:05:44.705Z,6.20
2018-08-07T21:08:14.403Z,6.93
2018-08-07T21:10:44.182Z,6.83
2018-08-07T21:13:13.892Z,7.00
2018-08-07T21:15:43.798Z,5.97
2018-08-07T21:18:13.607Z,6.13
2018-08-07T21:20:43.359Z,6.40
2018-08-07T21:23:13.254Z,6.17
2018-08-07T21:25:43.041Z,5.60
2018-08-07T21:28:12.812Z,6.17
2018-08-07T21:30:42.576Z,6.70
2018-08-07T21:33:12.360Z,6.43
2018-08-07T21:35:42.040Z,6.03
2018-08-07T21:38:11.948Z,6.97
2018-08-07T21:40:41.744Z,5.90
2018-08-07T21:43:11.704Z,7.00
2018-08-07T21:45:41.658Z,6.13
2018-08-07T21:48:11.567Z,5.73
2018-08-07T21:50:41.254Z,5.60
2018-08-07T21:53:11.037Z,6.17
2018-08-07T21:55:40.778Z,5.83
2018-08-07T21:58:10.501Z,6.30
2018-08-07T22:00:49.349Z,5.00
2018-08-07T22:03:19.467Z,5.53
2018-08-07T22:05:50.604Z,6.30
2018-08-07T22:08:20.613Z,5.80
2018-08-07T22:10:50.502Z,6.10
2018-08-07T22:13:20.372Z,6.20
2018-08-07T22:15:50.444Z,5.77
2018-08-07T22:18:20.276Z,6.13
2018-08-07T22:20:50.135Z,6.37
2018-08-07T22:23:19.833Z,6.13
2018-08-07T22:25:49.606Z,5.80
2018-08-07T22:28:19.632Z,6.10
2018-08-07T22:30:49.488Z,6.43
2018-08-07T22:33:19.266Z,6.33
2018-08-07T22:35:49.551Z,5.53
2018-08-07T22:38:19.803Z,6.37
2018-08-07T22:40:49.618Z,6.23
2018-08-07T22:43:19.459Z,6.90
2018-08-07T22:45:49.384Z,5.87
2018-08-07T22:48:19.236Z,6.90
2018-08-07T22:50:49.232Z,6.10
2018-08-07T22:53:19.014Z,6.47
2018-08-07T22:55:48.717Z,5.80
2018-08-07T22:58:18.459Z,6.10
2018-08-07T23:00:48.379Z,6.30
2018-08-07T23:03:18.074Z,7.30
2018-08-07T23:05:47.961Z,6.30
2018-08-07T23:08:17.845Z,6.60
2018-08-07T23:10:47.711Z,7.10
2018-08-07T23:13:17.602Z,7.03
2018-08-07T23:15:47.619Z,6.50
2018-08-07T23:18:17.537Z,7.07
2018-08-07T23:20:47.232Z,7.17
2018-08-07T23:23:17.182Z,7.80
2018-08-07T23:25:47.043Z,7.13
2018-08-07T23:28:17.064Z,6.83
2018-08-07T23:30:46.745Z,7.40
2018-08-07T23:33:16.468Z,7.80
2018-08-07T23:35:46.341Z,6.67
2018-08-07T23:38:16.299Z,7.30
2018-08-07T23:40:46.336Z,7.17
2018-08-07T23:43:16.026Z,7.10
2018-08-07T23:45:45.835Z,6.90
2018-08-07T23:48:15.642Z,7.87
2018-08-07T23:50:45.358Z,8.10
2018-08-07T23:53:15.225Z,7.90
2018-08-07T23:55:45.001Z,7.97
2018-08-07T23:58:14.729Z,7.87
